sensor_id;sensor_type;location;lat;lon;timestamp;P1;durP1;ratioP1;P2;durP2;ratioP2
7383;SDS011;3733;47.994;8.820;2024-02-23T00:01:43;1.97;;;1.10;;
7383;SDS011;3733;47.994;8.820;2024-02-23T00:04:10;1.20;;;1.00;;
7383;SDS011;3733;47.994;8.820;2024-02-23T00:06:36;1.73;;;1.10;;
7383;SDS011;3733;47.994;8.820;2024-02-23T00:09:01;4.17;;;1.20;;
7383;SDS011;3733;47.994;8.820;2024-02-23T00:11:27;0.90;;;0.90;;
7383;SDS011;3733;47.994;8.820;2024-02-23T00:13:53;0.97;;;0.97;;
7383;SDS011;3733;47.994;8.820;2024-02-23T00:16:19;0.80;;;0.80;;
7383;SDS011;3733;47.994;8.820;2024-02-23T00:18:44;1.00;;;1.00;;
7383;SDS011;3733;47.994;8.820;2024-02-23T00:21:10;1.30;;;0.90;;
7383;SDS011;3733;47.994;8.820;2024-02-23T00:23:36;1.80;;;1.10;;
7383;SDS011;3733;47.994;8.820;2024-02-23T00:26:01;1.00;;;1.00;;
7383;SDS011;3733;47.994;8.820;2024-02-23T00:28:27;0.80;;;0.80;;
7383;SDS011;3733;47.994;8.820;2024-02-23T00:30:53;1.33;;;0.93;;
7383;SDS011;3733;47.994;8.820;2024-02-23T00:33:18;1.23;;;0.80;;
7383;SDS011;3733;47.994;8.820;2024-02-23T00:35:44;2.17;;;0.90;;
7383;SDS011;3733;47.994;8.820;2024-02-23T00:38:09;1.17;;;0.80;;
7383;SDS011;3733;47.994;8.820;2024-02-23T00:40:35;2.10;;;0.80;;
7383;SDS011;3733;47.994;8.820;2024-02-23T00:43:01;1.03;;;0.80;;
7383;SDS011;3733;47.994;8.820;2024-02-23T00:45:28;1.43;;;0.83;;
7383;SDS011;3733;47.994;8.820;2024-02-23T00:47:53;0.77;;;0.77;;
7383;SDS011;3733;47.994;8.820;2024-02-23T00:50:19;0.80;;;0.80;;
7383;SDS011;3733;47.994;8.820;2024-02-23T00:52:44;1.03;;;0.90;;
7383;SDS011;3733;47.994;8.820;2024-02-23T00:55:10;0.70;;;0.70;;
7383;SDS011;3733;47.994;8.820;2024-02-23T00:57:36;0.67;;;0.67;;
7383;SDS011;3733;47.994;8.820;2024-02-23T01:00:03;0.80;;;0.80;;
7383;SDS011;3733;47.994;8.820;2024-02-23T01:02:34;0.80;;;0.80;;
7383;SDS011;3733;47.994;8.820;2024-02-23T01:04:59;0.77;;;0.77;;
7383;SDS011;3733;47.994;8.820;2024-02-23T01:07:25;0.80;;;0.80;;
7383;SDS011;3733;47.994;8.820;2024-02-23T01:09:51;0.87;;;0.80;;
7383;SDS011;3733;47.994;8.820;2024-02-23T01:12:16;0.80;;;0.80;;
7383;SDS011;3733;47.994;8.820;2024-02-23T01:14:42;0.80;;;0.80;;
7383;SDS011;3733;47.994;8.820;2024-02-23T01:17:08;0.70;;;0.70;;
7383;SDS011;3733;47.994;8.820;2024-02-23T01:19:33;0.90;;;0.80;;
7383;SDS011;3733;47.994;8.820;2024-02-23T01:21:59;0.90;;;0.70;;
7383;SDS011;3733;47.994;8.820;2024-02-23T01:24:27;1.13;;;0.80;;
7383;SDS011;3733;47.994;8.820;2024-02-23T01:26:54;0.70;;;0.70;;
7383;SDS011;3733;47.994;8.820;2024-02-23T01:29:21;0.67;;;0.67;;
7383;SDS011;3733;47.994;8.820;2024-02-23T01:31:47;0.80;;;0.80;;
7383;SDS011;3733;47.994;8.820;2024-02-23T01:34:13;1.33;;;0.80;;
7383;SDS011;3733;47.994;8.820;2024-02-23T01:36:39;0.67;;;0.67;;
7383;SDS011;3733;47.994;8.820;2024-02-23T01:39:05;0.80;;;0.80;;
7383;SDS011;3733;47.994;8.820;2024-02-23T01:41:31;0.90;;;0.90;;
7383;SDS011;3733;47.994;8.820;2024-02-23T01:43:57;0.93;;;0.90;;
7383;SDS011;3733;47.994;8.820;2024-02-23T01:46:23;1.43;;;0.80;;
7383;SDS011;3733;47.994;8.820;2024-02-23T01:48:48;1.90;;;0.80;;
7383;SDS011;3733;47.994;8.820;2024-02-23T01:51:14;1.00;;;0.80;;
7383;SDS011;3733;47.994;8.820;2024-02-23T01:53:40;0.90;;;0.90;;
7383;SDS011;3733;47.994;8.820;2024-02-23T01:56:06;0.90;;;0.90;;
7383;SDS011;3733;47.994;8.820;2024-02-23T01:58:33;6.03;;;0.97;;
7383;SDS011;3733;47.994;8.820;2024-02-23T02:01:02;0.80;;;0.80;;
7383;SDS011;3733;47.994;8.820;2024-02-23T02:03:27;3.33;;;0.93;;
7383;SDS011;3733;47.994;8.820;2024-02-23T02:05:53;1.00;;;0.90;;
7383;SDS011;3733;47.994;8.820;2024-02-23T02:08:19;2.80;;;0.90;;
7383;SDS011;3733;47.994;8.820;2024-02-23T02:10:45;0.80;;;0.80;;
7383;SDS011;3733;47.994;8.820;2024-02-23T02:13:12;0.90;;;0.90;;
7383;SDS011;3733;47.994;8.820;2024-02-23T02:15:38;0.77;;;0.77;;
7383;SDS011;3733;47.994;8.820;2024-02-23T02:18:03;1.03;;;0.90;;
7383;SDS011;3733;47.994;8.820;2024-02-23T02:20:32;0.80;;;0.80;;
7383;SDS011;3733;47.994;8.820;2024-02-23T02:22:58;2.40;;;0.90;;
7383;SDS011;3733;47.994;8.820;2024-02-23T02:25:24;1.33;;;0.80;;
7383;SDS011;3733;47.994;8.820;2024-02-23T02:27:50;1.03;;;0.90;;
7383;SDS011;3733;47.994;8.820;2024-02-23T02:30:16;1.70;;;0.90;;
7383;SDS011;3733;47.994;8.820;2024-02-23T02:32:41;0.97;;;0.87;;
7383;SDS011;3733;47.994;8.820;2024-02-23T02:35:07;1.17;;;1.07;;
7383;SDS011;3733;47.994;8.820;2024-02-23T02:37:35;0.80;;;0.80;;
7383;SDS011;3733;47.994;8.820;2024-02-23T02:40:01;10.27;;;1.00;;
7383;SDS011;3733;47.994;8.820;2024-02-23T02:42:27;0.90;;;0.90;;
7383;SDS011;3733;47.994;8.820;2024-02-23T02:44:53;1.23;;;0.87;;
7383;SDS011;3733;47.994;8.820;2024-02-23T02:47:19;2.10;;;0.83;;
7383;SDS011;3733;47.994;8.820;2024-02-23T02:49:44;3.93;;;1.40;;
7383;SDS011;3733;47.994;8.820;2024-02-23T02:52:10;1.63;;;0.90;;
7383;SDS011;3733;47.994;8.820;2024-02-23T02:54:36;1.73;;;0.90;;
7383;SDS011;3733;47.994;8.820;2024-02-23T02:57:01;2.27;;;1.00;;
7383;SDS011;3733;47.994;8.820;2024-02-23T02:59:27;0.80;;;0.80;;
7383;SDS011;3733;47.994;8.820;2024-02-23T03:01:52;2.50;;;0.90;;
7383;SDS011;3733;47.994;8.820;2024-02-23T03:04:18;0.87;;;0.87;;
7383;SDS011;3733;47.994;8.820;2024-02-23T03:06:44;0.90;;;0.90;;
7383;SDS011;3733;47.994;8.820;2024-02-23T03:09:09;3.70;;;1.00;;
7383;SDS011;3733;47.994;8.820;2024-02-23T03:11:35;3.13;;;1.23;;
7383;SDS011;3733;47.994;8.820;2024-02-23T03:14:01;3.10;;;1.50;;
7383;SDS011;3733;47.994;8.820;2024-02-23T03:16:28;4.63;;;1.00;;
7383;SDS011;3733;47.994;8.820;2024-02-23T03:18:56;1.97;;;0.90;;
7383;SDS011;3733;47.994;8.820;2024-02-23T03:21:21;4.23;;;1.20;;
7383;SDS011;3733;47.994;8.820;2024-02-23T03:23:47;1.33;;;1.23;;
7383;SDS011;3733;47.994;8.820;2024-02-23T03:26:13;1.23;;;1.07;;
7383;SDS011;3733;47.994;8.820;2024-02-23T03:28:41;1.77;;;0.90;;
7383;SDS011;3733;47.994;8.820;2024-02-23T03:31:07;4.70;;;1.30;;
7383;SDS011;3733;47.994;8.820;2024-02-23T03:33:33;2.67;;;1.20;;
7383;SDS011;3733;47.994;8.820;2024-02-23T03:35:59;2.20;;;1.03;;
7383;SDS011;3733;47.994;8.820;2024-02-23T03:38:24;1.70;;;0.97;;
7383;SDS011;3733;47.994;8.820;2024-02-23T03:40:50;1.43;;;1.30;;
7383;SDS011;3733;47.994;8.820;2024-02-23T03:43:15;0.90;;;0.90;;
7383;SDS011;3733;47.994;8.820;2024-02-23T03:45:41;1.53;;;1.23;;
7383;SDS011;3733;47.994;8.820;2024-02-23T03:48:06;2.73;;;1.23;;
7383;SDS011;3733;47.994;8.820;2024-02-23T03:50:32;5.80;;;1.00;;
7383;SDS011;3733;47.994;8.820;2024-02-23T03:52:58;0.87;;;0.87;;
7383;SDS011;3733;47.994;8.820;2024-02-23T03:55:23;1.97;;;1.00;;
7383;SDS011;3733;47.994;8.820;2024-02-23T03:57:49;1.23;;;1.13;;
7383;SDS011;3733;47.994;8.820;2024-02-23T04:00:15;0.90;;;0.90;;
7383;SDS011;3733;47.994;8.820;2024-02-23T04:02:42;1.40;;;1.30;;
7383;SDS011;3733;47.994;8.820;2024-02-23T04:05:08;2.00;;;1.00;;
7383;SDS011;3733;47.994;8.820;2024-02-23T04:07:34;1.90;;;1.30;;
7383;SDS011;3733;47.994;8.820;2024-02-23T04:10:00;1.67;;;1.17;;
7383;SDS011;3733;47.994;8.820;2024-02-23T04:12:25;1.30;;;1.20;;
7383;SDS011;3733;47.994;8.820;2024-02-23T04:14:51;3.07;;;1.37;;
7383;SDS011;3733;47.994;8.820;2024-02-23T04:17:16;2.27;;;1.50;;
7383;SDS011;3733;47.994;8.820;2024-02-23T04:19:42;5.17;;;1.47;;
7383;SDS011;3733;47.994;8.820;2024-02-23T04:22:08;1.50;;;1.27;;
7383;SDS011;3733;47.994;8.820;2024-02-23T04:24:40;1.43;;;1.30;;
7383;SDS011;3733;47.994;8.820;2024-02-23T04:27:06;4.70;;;1.40;;
7383;SDS011;3733;47.994;8.820;2024-02-23T04:29:32;4.20;;;1.60;;
7383;SDS011;3733;47.994;8.820;2024-02-23T04:32:01;3.30;;;1.63;;
7383;SDS011;3733;47.994;8.820;2024-02-23T04:34:28;4.60;;;1.73;;
7383;SDS011;3733;47.994;8.820;2024-02-23T04:36:54;3.50;;;1.47;;
7383;SDS011;3733;47.994;8.820;2024-02-23T04:39:20;2.53;;;1.37;;
7383;SDS011;3733;47.994;8.820;2024-02-23T04:41:46;1.40;;;1.30;;
7383;SDS011;3733;47.994;8.820;2024-02-23T04:44:12;2.50;;;1.50;;
7383;SDS011;3733;47.994;8.820;2024-02-23T04:46:37;7.07;;;1.73;;
7383;SDS011;3733;47.994;8.820;2024-02-23T04:49:03;2.73;;;1.10;;
7383;SDS011;3733;47.994;8.820;2024-02-23T04:51:29;2.70;;;1.20;;
7383;SDS011;3733;47.994;8.820;2024-02-23T04:53:54;1.37;;;1.27;;
7383;SDS011;3733;47.994;8.820;2024-02-23T04:56:20;3.60;;;1.80;;
7383;SDS011;3733;47.994;8.820;2024-02-23T04:58:45;2.20;;;1.80;;
7383;SDS011;3733;47.994;8.820;2024-02-23T05:01:11;3.03;;;2.33;;
7383;SDS011;3733;47.994;8.820;2024-02-23T05:03:37;2.70;;;2.50;;
7383;SDS011;3733;47.994;8.820;2024-02-23T05:06:03;2.93;;;1.83;;
7383;SDS011;3733;47.994;8.820;2024-02-23T05:08:30;1.70;;;1.57;;
7383;SDS011;3733;47.994;8.820;2024-02-23T05:10:58;1.63;;;1.40;;
7383;SDS011;3733;47.994;8.820;2024-02-23T05:13:24;3.07;;;2.07;;
7383;SDS011;3733;47.994;8.820;2024-02-23T05:15:50;5.67;;;3.60;;
7383;SDS011;3733;47.994;8.820;2024-02-23T05:18:15;5.93;;;2.70;;
7383;SDS011;3733;47.994;8.820;2024-02-23T05:20:41;3.80;;;2.20;;
7383;SDS011;3733;47.994;8.820;2024-02-23T05:23:07;2.37;;;1.33;;
7383;SDS011;3733;47.994;8.820;2024-02-23T05:25:32;3.73;;;1.53;;
7383;SDS011;3733;47.994;8.820;2024-02-23T05:27:58;2.17;;;1.37;;
7383;SDS011;3733;47.994;8.820;2024-02-23T05:30:24;4.07;;;1.13;;
7383;SDS011;3733;47.994;8.820;2024-02-23T05:32:51;3.23;;;1.43;;
7383;SDS011;3733;47.994;8.820;2024-02-23T05:35:17;3.40;;;1.20;;
7383;SDS011;3733;47.994;8.820;2024-02-23T05:37:43;3.33;;;1.40;;
7383;SDS011;3733;47.994;8.820;2024-02-23T05:40:08;3.40;;;1.53;;
7383;SDS011;3733;47.994;8.820;2024-02-23T05:42:37;1.87;;;1.20;;
7383;SDS011;3733;47.994;8.820;2024-02-23T05:45:03;1.80;;;1.70;;
7383;SDS011;3733;47.994;8.820;2024-02-23T05:47:32;1.70;;;1.50;;
7383;SDS011;3733;47.994;8.820;2024-02-23T05:49:58;2.73;;;1.70;;
7383;SDS011;3733;47.994;8.820;2024-02-23T05:52:23;4.77;;;2.97;;
7383;SDS011;3733;47.994;8.820;2024-02-23T05:54:49;2.90;;;1.30;;
7383;SDS011;3733;47.994;8.820;2024-02-23T05:57:14;2.00;;;1.47;;
7383;SDS011;3733;47.994;8.820;2024-02-23T05:59:40;1.80;;;1.70;;
7383;SDS011;3733;47.994;8.820;2024-02-23T06:02:05;1.40;;;1.30;;
7383;SDS011;3733;47.994;8.820;2024-02-23T06:04:31;2.00;;;1.50;;
7383;SDS011;3733;47.994;8.820;2024-02-23T06:06:57;3.40;;;2.13;;
7383;SDS011;3733;47.994;8.820;2024-02-23T06:09:22;4.20;;;1.90;;
7383;SDS011;3733;47.994;8.820;2024-02-23T06:11:48;9.57;;;1.93;;
7383;SDS011;3733;47.994;8.820;2024-02-23T06:14:14;2.30;;;1.40;;
7383;SDS011;3733;47.994;8.820;2024-02-23T06:16:39;2.90;;;1.90;;
7383;SDS011;3733;47.994;8.820;2024-02-23T06:19:05;1.80;;;1.30;;
7383;SDS011;3733;47.994;8.820;2024-02-23T06:21:31;6.00;;;2.10;;
7383;SDS011;3733;47.994;8.820;2024-02-23T06:23:57;3.03;;;1.97;;
7383;SDS011;3733;47.994;8.820;2024-02-23T06:26:23;2.53;;;1.60;;
7383;SDS011;3733;47.994;8.820;2024-02-23T06:28:49;1.73;;;1.63;;
7383;SDS011;3733;47.994;8.820;2024-02-23T06:31:14;4.90;;;1.80;;
7383;SDS011;3733;47.994;8.820;2024-02-23T06:33:40;8.90;;;3.67;;
7383;SDS011;3733;47.994;8.820;2024-02-23T06:36:06;5.03;;;2.70;;
7383;SDS011;3733;47.994;8.820;2024-02-23T06:38:32;7.93;;;2.93;;
7383;SDS011;3733;47.994;8.820;2024-02-23T06:40:58;4.90;;;2.53;;
7383;SDS011;3733;47.994;8.820;2024-02-23T06:43:24;3.43;;;2.60;;
7383;SDS011;3733;47.994;8.820;2024-02-23T06:45:50;2.60;;;2.03;;
7383;SDS011;3733;47.994;8.820;2024-02-23T06:48:16;5.13;;;2.00;;
7383;SDS011;3733;47.994;8.820;2024-02-23T06:50:41;2.00;;;1.80;;
7383;SDS011;3733;47.994;8.820;2024-02-23T06:53:07;6.80;;;2.13;;
7383;SDS011;3733;47.994;8.820;2024-02-23T06:55:33;3.23;;;1.70;;
7383;SDS011;3733;47.994;8.820;2024-02-23T06:57:59;4.07;;;1.80;;
7383;SDS011;3733;47.994;8.820;2024-02-23T07:00:25;4.07;;;1.77;;
7383;SDS011;3733;47.994;8.820;2024-02-23T07:02:50;3.77;;;2.37;;
7383;SDS011;3733;47.994;8.820;2024-02-23T07:05:16;3.63;;;2.10;;
7383;SDS011;3733;47.994;8.820;2024-02-23T07:07:42;5.50;;;1.83;;
7383;SDS011;3733;47.994;8.820;2024-02-23T07:10:08;2.43;;;1.73;;
7383;SDS011;3733;47.994;8.820;2024-02-23T07:12:34;1.40;;;1.30;;
7383;SDS011;3733;47.994;8.820;2024-02-23T07:15:00;5.07;;;1.80;;
7383;SDS011;3733;47.994;8.820;2024-02-23T07:17:25;2.10;;;1.70;;
7383;SDS011;3733;47.994;8.820;2024-02-23T07:19:51;4.20;;;1.37;;
7383;SDS011;3733;47.994;8.820;2024-02-23T07:22:18;1.73;;;1.63;;
7383;SDS011;3733;47.994;8.820;2024-02-23T07:24:44;2.20;;;1.80;;
7383;SDS011;3733;47.994;8.820;2024-02-23T07:27:09;4.23;;;2.20;;
7383;SDS011;3733;47.994;8.820;2024-02-23T07:29:35;3.63;;;2.00;;
7383;SDS011;3733;47.994;8.820;2024-02-23T07:32:01;2.10;;;1.50;;
7383;SDS011;3733;47.994;8.820;2024-02-23T07:34:27;1.57;;;1.47;;
7383;SDS011;3733;47.994;8.820;2024-02-23T07:36:53;1.93;;;1.43;;
7383;SDS011;3733;47.994;8.820;2024-02-23T07:39:19;4.97;;;1.70;;
7383;SDS011;3733;47.994;8.820;2024-02-23T07:41:45;3.67;;;1.80;;
7383;SDS011;3733;47.994;8.820;2024-02-23T07:44:10;4.20;;;1.83;;
7383;SDS011;3733;47.994;8.820;2024-02-23T07:46:36;7.03;;;2.03;;
7383;SDS011;3733;47.994;8.820;2024-02-23T07:49:02;2.43;;;1.70;;
7383;SDS011;3733;47.994;8.820;2024-02-23T07:51:29;2.63;;;1.90;;
7383;SDS011;3733;47.994;8.820;2024-02-23T07:53:54;2.60;;;2.00;;
7383;SDS011;3733;47.994;8.820;2024-02-23T07:56:20;3.33;;;2.37;;
7383;SDS011;3733;47.994;8.820;2024-02-23T07:58:46;5.87;;;2.30;;
7383;SDS011;3733;47.994;8.820;2024-02-23T08:01:12;4.07;;;1.60;;
7383;SDS011;3733;47.994;8.820;2024-02-23T08:03:39;2.93;;;2.40;;
7383;SDS011;3733;47.994;8.820;2024-02-23T08:06:05;7.33;;;3.13;;
7383;SDS011;3733;47.994;8.820;2024-02-23T08:08:31;3.20;;;2.90;;
7383;SDS011;3733;47.994;8.820;2024-02-23T08:11:00;7.87;;;2.63;;
7383;SDS011;3733;47.994;8.820;2024-02-23T08:13:26;4.93;;;1.80;;
7383;SDS011;3733;47.994;8.820;2024-02-23T08:15:52;11.20;;;3.13;;
7383;SDS011;3733;47.994;8.820;2024-02-23T08:18:17;4.20;;;1.73;;
7383;SDS011;3733;47.994;8.820;2024-02-23T08:20:43;7.40;;;2.23;;
7383;SDS011;3733;47.994;8.820;2024-02-23T08:23:09;6.00;;;1.73;;
7383;SDS011;3733;47.994;8.820;2024-02-23T08:25:35;5.80;;;2.33;;
7383;SDS011;3733;47.994;8.820;2024-02-23T08:28:01;2.20;;;1.87;;
7383;SDS011;3733;47.994;8.820;2024-02-23T08:30:27;10.77;;;1.53;;
7383;SDS011;3733;47.994;8.820;2024-02-23T08:32:53;5.27;;;1.90;;
7383;SDS011;3733;47.994;8.820;2024-02-23T08:35:19;4.43;;;1.93;;
7383;SDS011;3733;47.994;8.820;2024-02-23T08:37:45;5.07;;;1.80;;
7383;SDS011;3733;47.994;8.820;2024-02-23T08:40:11;9.13;;;1.90;;
7383;SDS011;3733;47.994;8.820;2024-02-23T08:42:37;6.30;;;2.30;;
7383;SDS011;3733;47.994;8.820;2024-02-23T08:45:03;5.67;;;2.30;;
7383;SDS011;3733;47.994;8.820;2024-02-23T08:47:29;10.30;;;3.27;;
7383;SDS011;3733;47.994;8.820;2024-02-23T08:49:58;7.67;;;3.80;;
7383;SDS011;3733;47.994;8.820;2024-02-23T08:52:24;11.67;;;3.47;;
7383;SDS011;3733;47.994;8.820;2024-02-23T08:54:50;12.53;;;3.67;;
7383;SDS011;3733;47.994;8.820;2024-02-23T08:57:16;7.87;;;3.40;;
7383;SDS011;3733;47.994;8.820;2024-02-23T08:59:44;7.50;;;3.90;;
7383;SDS011;3733;47.994;8.820;2024-02-23T09:02:11;7.37;;;2.90;;
7383;SDS011;3733;47.994;8.820;2024-02-23T09:04:37;13.67;;;3.37;;
7383;SDS011;3733;47.994;8.820;2024-02-23T09:07:03;9.60;;;2.27;;
7383;SDS011;3733;47.994;8.820;2024-02-23T09:09:28;7.93;;;2.33;;
7383;SDS011;3733;47.994;8.820;2024-02-23T09:11:55;5.53;;;2.37;;
7383;SDS011;3733;47.994;8.820;2024-02-23T09:14:20;6.53;;;2.67;;
7383;SDS011;3733;47.994;8.820;2024-02-23T09:16:46;9.77;;;1.80;;
7383;SDS011;3733;47.994;8.820;2024-02-23T09:19:15;11.80;;;1.90;;
7383;SDS011;3733;47.994;8.820;2024-02-23T09:21:41;11.07;;;2.77;;
7383;SDS011;3733;47.994;8.820;2024-02-23T09:24:07;5.77;;;2.17;;
7383;SDS011;3733;47.994;8.820;2024-02-23T09:26:32;4.93;;;2.47;;
7383;SDS011;3733;47.994;8.820;2024-02-23T09:28:58;2.23;;;1.70;;
7383;SDS011;3733;47.994;8.820;2024-02-23T09:31:24;6.67;;;2.20;;
7383;SDS011;3733;47.994;8.820;2024-02-23T09:33:51;4.87;;;1.90;;
7383;SDS011;3733;47.994;8.820;2024-02-23T09:36:17;4.90;;;2.00;;
7383;SDS011;3733;47.994;8.820;2024-02-23T09:38:43;7.13;;;1.87;;
7383;SDS011;3733;47.994;8.820;2024-02-23T09:41:11;9.30;;;3.50;;
7383;SDS011;3733;47.994;8.820;2024-02-23T09:43:44;8.73;;;2.00;;
7383;SDS011;3733;47.994;8.820;2024-02-23T09:46:11;16.30;;;2.20;;
7383;SDS011;3733;47.994;8.820;2024-02-23T09:48:37;4.10;;;1.80;;
7383;SDS011;3733;47.994;8.820;2024-02-23T09:51:04;6.17;;;1.83;;
7383;SDS011;3733;47.994;8.820;2024-02-23T09:53:31;4.00;;;2.20;;
7383;SDS011;3733;47.994;8.820;2024-02-23T09:56:01;8.10;;;2.40;;
7383;SDS011;3733;47.994;8.820;2024-02-23T09:58:28;5.37;;;1.80;;
7383;SDS011;3733;47.994;8.820;2024-02-23T10:00:55;9.97;;;1.93;;
7383;SDS011;3733;47.994;8.820;2024-02-23T10:03:23;15.67;;;2.53;;
7383;SDS011;3733;47.994;8.820;2024-02-23T10:05:55;4.57;;;1.87;;
7383;SDS011;3733;47.994;8.820;2024-02-23T10:08:21;13.40;;;1.80;;
7383;SDS011;3733;47.994;8.820;2024-02-23T10:10:47;5.40;;;2.33;;
7383;SDS011;3733;47.994;8.820;2024-02-23T10:13:17;3.93;;;2.13;;
7383;SDS011;3733;47.994;8.820;2024-02-23T10:15:54;5.87;;;1.87;;
7383;SDS011;3733;47.994;8.820;2024-02-23T10:18:20;7.50;;;2.07;;
7383;SDS011;3733;47.994;8.820;2024-02-23T10:20:46;14.63;;;2.10;;
7383;SDS011;3733;47.994;8.820;2024-02-23T10:23:12;9.40;;;2.10;;
7383;SDS011;3733;47.994;8.820;2024-02-23T10:25:38;6.93;;;1.87;;
7383;SDS011;3733;47.994;8.820;2024-02-23T10:28:05;3.53;;;1.83;;
7383;SDS011;3733;47.994;8.820;2024-02-23T10:30:31;8.03;;;1.90;;
7383;SDS011;3733;47.994;8.820;2024-02-23T10:32:58;9.50;;;2.00;;
7383;SDS011;3733;47.994;8.820;2024-02-23T10:35:24;13.10;;;1.80;;
7383;SDS011;3733;47.994;8.820;2024-02-23T10:37:52;2.70;;;1.60;;
7383;SDS011;3733;47.994;8.820;2024-02-23T10:40:19;4.40;;;1.80;;
7383;SDS011;3733;47.994;8.820;2024-02-23T10:42:46;4.83;;;1.47;;
7383;SDS011;3733;47.994;8.820;2024-02-23T10:45:19;5.00;;;2.13;;
7383;SDS011;3733;47.994;8.820;2024-02-23T10:47:49;9.17;;;2.03;;
7383;SDS011;3733;47.994;8.820;2024-02-23T10:50:15;7.03;;;1.67;;
7383;SDS011;3733;47.994;8.820;2024-02-23T10:52:44;5.43;;;2.33;;
7383;SDS011;3733;47.994;8.820;2024-02-23T10:55:10;8.37;;;1.80;;
7383;SDS011;3733;47.994;8.820;2024-02-23T10:57:37;4.00;;;1.80;;
7383;SDS011;3733;47.994;8.820;2024-02-23T11:00:04;5.83;;;2.33;;
7383;SDS011;3733;47.994;8.820;2024-02-23T11:02:45;6.07;;;1.63;;
7383;SDS011;3733;47.994;8.820;2024-02-23T11:05:15;8.43;;;1.63;;
7383;SDS011;3733;47.994;8.820;2024-02-23T11:07:41;5.20;;;1.57;;
7383;SDS011;3733;47.994;8.820;2024-02-23T11:10:07;4.67;;;2.10;;
7383;SDS011;3733;47.994;8.820;2024-02-23T11:12:34;3.77;;;1.83;;
7383;SDS011;3733;47.994;8.820;2024-02-23T11:15:01;7.33;;;1.80;;
7383;SDS011;3733;47.994;8.820;2024-02-23T11:17:28;3.83;;;1.67;;
7383;SDS011;3733;47.994;8.820;2024-02-23T11:19:58;3.70;;;2.07;;
7383;SDS011;3733;47.994;8.820;2024-02-23T11:22:32;11.80;;;3.27;;
7383;SDS011;3733;47.994;8.820;2024-02-23T11:25:06;8.37;;;2.70;;
7383;SDS011;3733;47.994;8.820;2024-02-23T11:27:36;6.33;;;2.73;;
7383;SDS011;3733;47.994;8.820;2024-02-23T11:30:03;14.43;;;2.43;;
7383;SDS011;3733;47.994;8.820;2024-02-23T11:32:36;12.27;;;2.10;;
7383;SDS011;3733;47.994;8.820;2024-02-23T11:35:03;7.90;;;1.87;;
7383;SDS011;3733;47.994;8.820;2024-02-23T11:37:32;5.03;;;1.80;;
7383;SDS011;3733;47.994;8.820;2024-02-23T11:39:58;10.70;;;1.97;;
7383;SDS011;3733;47.994;8.820;2024-02-23T11:42:26;3.70;;;1.80;;
7383;SDS011;3733;47.994;8.820;2024-02-23T11:44:52;4.73;;;1.70;;
7383;SDS011;3733;47.994;8.820;2024-02-23T11:47:22;5.60;;;2.37;;
7383;SDS011;3733;47.994;8.820;2024-02-23T11:49:48;2.50;;;1.70;;
7383;SDS011;3733;47.994;8.820;2024-02-23T11:52:13;10.20;;;2.43;;
7383;SDS011;3733;47.994;8.820;2024-02-23T11:54:40;5.47;;;2.07;;
7383;SDS011;3733;47.994;8.820;2024-02-23T11:57:06;4.80;;;2.17;;
7383;SDS011;3733;47.994;8.820;2024-02-23T11:59:32;7.17;;;2.10;;
7383;SDS011;3733;47.994;8.820;2024-02-23T12:01:57;4.00;;;1.50;;
7383;SDS011;3733;47.994;8.820;2024-02-23T12:04:23;4.63;;;1.80;;
7383;SDS011;3733;47.994;8.820;2024-02-23T12:06:51;8.10;;;2.10;;
7383;SDS011;3733;47.994;8.820;2024-02-23T12:09:17;4.67;;;1.53;;
7383;SDS011;3733;47.994;8.820;2024-02-23T12:11:43;7.60;;;1.87;;
7383;SDS011;3733;47.994;8.820;2024-02-23T12:14:08;6.90;;;2.10;;
7383;SDS011;3733;47.994;8.820;2024-02-23T12:16:35;5.47;;;2.00;;
7383;SDS011;3733;47.994;8.820;2024-02-23T12:19:03;7.27;;;1.73;;
7383;SDS011;3733;47.994;8.820;2024-02-23T12:21:29;9.07;;;2.10;;
7383;SDS011;3733;47.994;8.820;2024-02-23T12:23:54;9.17;;;2.10;;
7383;SDS011;3733;47.994;8.820;2024-02-23T12:26:20;4.67;;;1.80;;
7383;SDS011;3733;47.994;8.820;2024-02-23T12:28:46;4.97;;;1.53;;
7383;SDS011;3733;47.994;8.820;2024-02-23T12:31:11;5.90;;;2.10;;
7383;SDS011;3733;47.994;8.820;2024-02-23T12:33:38;3.47;;;1.50;;
7383;SDS011;3733;47.994;8.820;2024-02-23T12:36:05;7.10;;;1.80;;
7383;SDS011;3733;47.994;8.820;2024-02-23T12:38:32;5.43;;;2.03;;
7383;SDS011;3733;47.994;8.820;2024-02-23T12:40:59;9.37;;;2.20;;
7383;SDS011;3733;47.994;8.820;2024-02-23T12:43:26;5.50;;;2.27;;
7383;SDS011;3733;47.994;8.820;2024-02-23T12:45:53;3.10;;;1.80;;
7383;SDS011;3733;47.994;8.820;2024-02-23T12:48:22;4.20;;;1.53;;
7383;SDS011;3733;47.994;8.820;2024-02-23T12:50:48;6.30;;;1.83;;
7383;SDS011;3733;47.994;8.820;2024-02-23T12:55:58;9.73;;;1.90;;
7383;SDS011;3733;47.994;8.820;2024-02-23T12:58:25;5.03;;;1.70;;
7383;SDS011;3733;47.994;8.820;2024-02-23T13:00:51;3.70;;;1.63;;
7383;SDS011;3733;47.994;8.820;2024-02-23T13:03:17;11.13;;;2.33;;
7383;SDS011;3733;47.994;8.820;2024-02-23T13:05:42;7.13;;;1.73;;
7383;SDS011;3733;47.994;8.820;2024-02-23T13:08:08;9.30;;;3.13;;
7383;SDS011;3733;47.994;8.820;2024-02-23T13:10:34;4.37;;;1.90;;
7383;SDS011;3733;47.994;8.820;2024-02-23T13:13:00;3.63;;;1.40;;
7383;SDS011;3733;47.994;8.820;2024-02-23T13:15:26;5.60;;;1.57;;
7383;SDS011;3733;47.994;8.820;2024-02-23T13:17:51;4.07;;;1.33;;
7383;SDS011;3733;47.994;8.820;2024-02-23T13:20:17;9.63;;;2.20;;
7383;SDS011;3733;47.994;8.820;2024-02-23T13:22:43;12.73;;;2.20;;
7383;SDS011;3733;47.994;8.820;2024-02-23T13:25:08;6.43;;;1.80;;
7383;SDS011;3733;47.994;8.820;2024-02-23T13:27:34;5.70;;;2.13;;
7383;SDS011;3733;47.994;8.820;2024-02-23T13:29:59;4.60;;;1.60;;
7383;SDS011;3733;47.994;8.820;2024-02-23T13:32:25;10.83;;;2.20;;
7383;SDS011;3733;47.994;8.820;2024-02-23T13:34:51;6.20;;;1.87;;
7383;SDS011;3733;47.994;8.820;2024-02-23T13:37:17;8.27;;;2.63;;
7383;SDS011;3733;47.994;8.820;2024-02-23T13:39:43;5.67;;;1.90;;
7383;SDS011;3733;47.994;8.820;2024-02-23T13:42:09;3.97;;;1.47;;
7383;SDS011;3733;47.994;8.820;2024-02-23T13:44:35;5.50;;;1.90;;
7383;SDS011;3733;47.994;8.820;2024-02-23T13:47:01;12.90;;;2.10;;
7383;SDS011;3733;47.994;8.820;2024-02-23T13:49:27;3.30;;;1.50;;
7383;SDS011;3733;47.994;8.820;2024-02-23T13:51:53;5.37;;;1.77;;
7383;SDS011;3733;47.994;8.820;2024-02-23T13:54:19;2.40;;;1.30;;
7383;SDS011;3733;47.994;8.820;2024-02-23T13:56:45;4.20;;;1.70;;
7383;SDS011;3733;47.994;8.820;2024-02-23T13:59:10;6.07;;;2.00;;
7383;SDS011;3733;47.994;8.820;2024-02-23T14:01:36;7.30;;;1.80;;
7383;SDS011;3733;47.994;8.820;2024-02-23T14:04:05;4.03;;;1.87;;
7383;SDS011;3733;47.994;8.820;2024-02-23T14:06:32;4.63;;;1.63;;
7383;SDS011;3733;47.994;8.820;2024-02-23T14:08:58;3.63;;;1.57;;
7383;SDS011;3733;47.994;8.820;2024-02-23T14:11:24;4.40;;;2.10;;
7383;SDS011;3733;47.994;8.820;2024-02-23T14:13:50;3.80;;;1.40;;
7383;SDS011;3733;47.994;8.820;2024-02-23T14:16:16;7.33;;;2.33;;
7383;SDS011;3733;47.994;8.820;2024-02-23T14:18:42;1.60;;;1.47;;
7383;SDS011;3733;47.994;8.820;2024-02-23T14:21:09;9.17;;;1.80;;
7383;SDS011;3733;47.994;8.820;2024-02-23T14:23:35;2.70;;;1.60;;
7383;SDS011;3733;47.994;8.820;2024-02-23T14:26:02;10.10;;;2.60;;
7383;SDS011;3733;47.994;8.820;2024-02-23T14:28:28;7.20;;;1.73;;
7383;SDS011;3733;47.994;8.820;2024-02-23T14:30:54;8.93;;;1.90;;
7383;SDS011;3733;47.994;8.820;2024-02-23T14:33:20;5.90;;;1.67;;
7383;SDS011;3733;47.994;8.820;2024-02-23T14:35:46;7.40;;;2.67;;
7383;SDS011;3733;47.994;8.820;2024-02-23T14:38:12;6.77;;;2.40;;
7383;SDS011;3733;47.994;8.820;2024-02-23T14:40:37;4.30;;;2.00;;
7383;SDS011;3733;47.994;8.820;2024-02-23T14:43:03;10.17;;;2.13;;
7383;SDS011;3733;47.994;8.820;2024-02-23T14:45:30;8.33;;;2.37;;
7383;SDS011;3733;47.994;8.820;2024-02-23T14:47:56;4.70;;;1.90;;
7383;SDS011;3733;47.994;8.820;2024-02-23T14:50:23;2.93;;;1.70;;
7383;SDS011;3733;47.994;8.820;2024-02-23T14:52:48;6.20;;;1.73;;
7383;SDS011;3733;47.994;8.820;2024-02-23T14:55:14;6.37;;;2.00;;
7383;SDS011;3733;47.994;8.820;2024-02-23T14:57:40;3.90;;;1.90;;
7383;SDS011;3733;47.994;8.820;2024-02-23T15:00:06;10.60;;;1.90;;
7383;SDS011;3733;47.994;8.820;2024-02-23T15:02:32;5.90;;;2.03;;
7383;SDS011;3733;47.994;8.820;2024-02-23T15:04:58;2.50;;;1.77;;
7383;SDS011;3733;47.994;8.820;2024-02-23T15:07:23;4.33;;;1.73;;
7383;SDS011;3733;47.994;8.820;2024-02-23T15:09:49;5.07;;;1.80;;
7383;SDS011;3733;47.994;8.820;2024-02-23T15:12:15;2.17;;;1.67;;